sensor_id;sensor_type;location;lat;lon;timestamp;P1;durP1;ratioP1;P2;durP2;ratioP2
65996;SDS011;52765;52.258;21.052;2022-09-24T00:01:06;11.50;;;5.95;;
65996;SDS011;52765;52.258;21.052;2022-09-24T00:03:39;11.57;;;6.00;;
65996;SDS011;52765;52.258;21.052;2022-09-24T00:06:06;15.13;;;7.35;;
65996;SDS011;52765;52.258;21.052;2022-09-24T00:08:33;12.57;;;6.88;;
65996;SDS011;52765;52.258;21.052;2022-09-24T00:11:03;13.02;;;6.28;;
65996;SDS011;52765;52.258;21.052;2022-09-24T00:13:30;13.43;;;6.43;;
65996;SDS011;52765;52.258;21.052;2022-09-24T00:16:00;16.20;;;7.07;;
65996;SDS011;52765;52.258;21.052;2022-09-24T00:18:31;16.45;;;7.05;;
65996;SDS011;52765;52.258;21.052;2022-09-24T00:20:57;13.55;;;6.97;;
65996;SDS011;52765;52.258;21.052;2022-09-24T00:23:23;12.38;;;7.28;;
65996;SDS011;52765;52.258;21.052;2022-09-24T00:25:49;13.43;;;6.55;;
65996;SDS011;52765;52.258;21.052;2022-09-24T00:28:34;12.93;;;6.82;;
65996;SDS011;52765;52.258;21.052;2022-09-24T00:31:02;12.45;;;6.57;;
65996;SDS011;52765;52.258;21.052;2022-09-24T00:33:31;14.05;;;6.65;;
65996;SDS011;52765;52.258;21.052;2022-09-24T00:36:01;16.33;;;7.30;;
65996;SDS011;52765;52.258;21.052;2022-09-24T00:38:28;13.52;;;6.60;;
65996;SDS011;52765;52.258;21.052;2022-09-24T00:40:57;10.55;;;6.18;;
65996;SDS011;52765;52.258;21.052;2022-09-24T00:45:50;22.25;;;8.70;;
65996;SDS011;52765;52.258;21.052;2022-09-24T00:48:18;19.42;;;8.20;;
65996;SDS011;52765;52.258;21.052;2022-09-24T00:50:45;19.42;;;9.15;;
65996;SDS011;52765;52.258;21.052;2022-09-24T00:53:13;17.17;;;8.70;;
65996;SDS011;52765;52.258;21.052;2022-09-24T00:55:42;15.52;;;8.00;;
65996;SDS011;52765;52.258;21.052;2022-09-24T00:58:09;13.30;;;7.28;;
65996;SDS011;52765;52.258;21.052;2022-09-24T01:00:37;14.07;;;7.25;;
65996;SDS011;52765;52.258;21.052;2022-09-24T01:03:06;13.07;;;7.45;;
65996;SDS011;52765;52.258;21.052;2022-09-24T01:05:36;18.27;;;7.53;;
65996;SDS011;52765;52.258;21.052;2022-09-24T01:08:03;13.73;;;7.93;;
65996;SDS011;52765;52.258;21.052;2022-09-24T01:10:50;15.02;;;8.10;;
65996;SDS011;52765;52.258;21.052;2022-09-24T01:16:20;17.10;;;7.78;;
65996;SDS011;52765;52.258;21.052;2022-09-24T01:18:53;13.75;;;7.72;;
65996;SDS011;52765;52.258;21.052;2022-09-24T01:21:46;14.95;;;7.57;;
65996;SDS011;52765;52.258;21.052;2022-09-24T01:24:28;14.77;;;7.47;;
65996;SDS011;52765;52.258;21.052;2022-09-24T01:30:07;12.48;;;7.13;;
65996;SDS011;52765;52.258;21.052;2022-09-24T01:35:34;14.90;;;7.90;;
65996;SDS011;52765;52.258;21.052;2022-09-24T01:38:06;14.20;;;7.97;;
65996;SDS011;52765;52.258;21.052;2022-09-24T01:40:37;18.27;;;8.75;;
65996;SDS011;52765;52.258;21.052;2022-09-24T01:43:04;17.23;;;7.70;;
65996;SDS011;52765;52.258;21.052;2022-09-24T01:45:34;15.98;;;7.97;;
65996;SDS011;52765;52.258;21.052;2022-09-24T01:48:03;14.23;;;7.47;;
65996;SDS011;52765;52.258;21.052;2022-09-24T01:50:31;14.70;;;7.20;;
65996;SDS011;52765;52.258;21.052;2022-09-24T01:53:28;20.00;;;9.48;;
65996;SDS011;52765;52.258;21.052;2022-09-24T01:56:07;13.18;;;7.75;;
65996;SDS011;52765;52.258;21.052;2022-09-24T01:59:33;13.40;;;7.93;;
65996;SDS011;52765;52.258;21.052;2022-09-24T02:02:19;11.48;;;7.53;;
65996;SDS011;52765;52.258;21.052;2022-09-24T02:04:56;13.98;;;7.50;;
65996;SDS011;52765;52.258;21.052;2022-09-24T02:08:01;11.90;;;7.25;;
65996;SDS011;52765;52.258;21.052;2022-09-24T02:13:32;12.38;;;6.93;;
65996;SDS011;52765;52.258;21.052;2022-09-24T02:16:04;16.50;;;8.10;;
65996;SDS011;52765;52.258;21.052;2022-09-24T02:18:34;17.48;;;7.95;;
65996;SDS011;52765;52.258;21.052;2022-09-24T02:21:05;15.40;;;8.52;;
65996;SDS011;52765;52.258;21.052;2022-09-24T02:23:34;12.68;;;7.85;;
65996;SDS011;52765;52.258;21.052;2022-09-24T02:26:02;15.75;;;8.07;;
65996;SDS011;52765;52.258;21.052;2022-09-24T02:28:30;14.98;;;8.48;;
65996;SDS011;52765;52.258;21.052;2022-09-24T02:33:58;14.32;;;7.57;;
65996;SDS011;52765;52.258;21.052;2022-09-24T02:36:45;15.75;;;9.07;;
65996;SDS011;52765;52.258;21.052;2022-09-24T02:39:31;15.98;;;8.27;;
65996;SDS011;52765;52.258;21.052;2022-09-24T02:41:57;15.10;;;8.52;;
65996;SDS011;52765;52.258;21.052;2022-09-24T02:44:24;19.30;;;8.90;;
65996;SDS011;52765;52.258;21.052;2022-09-24T02:46:50;14.95;;;7.88;;
65996;SDS011;52765;52.258;21.052;2022-09-24T02:49:16;15.70;;;8.52;;
65996;SDS011;52765;52.258;21.052;2022-09-24T02:51:42;15.77;;;7.93;;
65996;SDS011;52765;52.258;21.052;2022-09-24T02:54:08;12.32;;;7.22;;
65996;SDS011;52765;52.258;21.052;2022-09-24T02:56:34;12.80;;;7.40;;
65996;SDS011;52765;52.258;21.052;2022-09-24T02:59:00;14.45;;;6.90;;
65996;SDS011;52765;52.258;21.052;2022-09-24T03:01:27;13.88;;;6.63;;
65996;SDS011;52765;52.258;21.052;2022-09-24T03:03:53;14.32;;;7.18;;
65996;SDS011;52765;52.258;21.052;2022-09-24T03:06:19;12.25;;;6.57;;
65996;SDS011;52765;52.258;21.052;2022-09-24T03:08:44;16.30;;;7.20;;
65996;SDS011;52765;52.258;21.052;2022-09-24T03:11:11;14.60;;;7.28;;
65996;SDS011;52765;52.258;21.052;2022-09-24T03:13:37;13.18;;;6.45;;
65996;SDS011;52765;52.258;21.052;2022-09-24T03:16:03;12.43;;;7.25;;
65996;SDS011;52765;52.258;21.052;2022-09-24T03:18:29;20.20;;;7.43;;
65996;SDS011;52765;52.258;21.052;2022-09-24T03:20:59;14.10;;;7.75;;
65996;SDS011;52765;52.258;21.052;2022-09-24T03:23:36;15.20;;;6.85;;
65996;SDS011;52765;52.258;21.052;2022-09-24T03:26:01;17.95;;;8.15;;
65996;SDS011;52765;52.258;21.052;2022-09-24T03:28:27;17.10;;;7.65;;
65996;SDS011;52765;52.258;21.052;2022-09-24T03:30:53;19.40;;;8.07;;
65996;SDS011;52765;52.258;21.052;2022-09-24T03:33:26;12.63;;;7.68;;
65996;SDS011;52765;52.258;21.052;2022-09-24T03:35:57;15.38;;;7.40;;
65996;SDS011;52765;52.258;21.052;2022-09-24T03:38:33;18.65;;;7.32;;
65996;SDS011;52765;52.258;21.052;2022-09-24T03:41:00;15.48;;;7.70;;
65996;SDS011;52765;52.258;21.052;2022-09-24T03:43:26;12.85;;;6.97;;
65996;SDS011;52765;52.258;21.052;2022-09-24T03:45:52;14.85;;;7.63;;
65996;SDS011;52765;52.258;21.052;2022-09-24T03:48:19;18.98;;;7.80;;
65996;SDS011;52765;52.258;21.052;2022-09-24T03:50:48;14.23;;;7.53;;
65996;SDS011;52765;52.258;21.052;2022-09-24T03:53:14;14.18;;;7.65;;
65996;SDS011;52765;52.258;21.052;2022-09-24T03:55:41;45.45;;;22.88;;
65996;SDS011;52765;52.258;21.052;2022-09-24T03:58:17;29.33;;;14.45;;
65996;SDS011;52765;52.258;21.052;2022-09-24T04:00:43;19.25;;;10.50;;
65996;SDS011;52765;52.258;21.052;2022-09-24T04:03:08;17.15;;;9.20;;
65996;SDS011;52765;52.258;21.052;2022-09-24T04:05:34;15.52;;;8.45;;
65996;SDS011;52765;52.258;21.052;2022-09-24T04:08:00;17.75;;;7.75;;
65996;SDS011;52765;52.258;21.052;2022-09-24T04:10:27;16.63;;;8.48;;
65996;SDS011;52765;52.258;21.052;2022-09-24T04:12:53;13.65;;;7.30;;
65996;SDS011;52765;52.258;21.052;2022-09-24T04:15:19;14.98;;;7.68;;
65996;SDS011;52765;52.258;21.052;2022-09-24T04:18:03;16.20;;;7.13;;
65996;SDS011;52765;52.258;21.052;2022-09-24T04:20:30;17.90;;;7.72;;
65996;SDS011;52765;52.258;21.052;2022-09-24T04:22:57;16.83;;;7.53;;
65996;SDS011;52765;52.258;21.052;2022-09-24T04:25:24;14.88;;;7.88;;
65996;SDS011;52765;52.258;21.052;2022-09-24T04:27:51;14.35;;;7.20;;
65996;SDS011;52765;52.258;21.052;2022-09-24T04:30:18;18.73;;;7.38;;
65996;SDS011;52765;52.258;21.052;2022-09-24T04:32:44;14.38;;;7.30;;
65996;SDS011;52765;52.258;21.052;2022-09-24T04:35:10;13.07;;;7.10;;
65996;SDS011;52765;52.258;21.052;2022-09-24T04:37:35;53.80;;;24.38;;
65996;SDS011;52765;52.258;21.052;2022-09-24T04:40:02;31.70;;;14.98;;
65996;SDS011;52765;52.258;21.052;2022-09-24T04:42:29;21.60;;;10.88;;
65996;SDS011;52765;52.258;21.052;2022-09-24T04:44:55;21.48;;;9.32;;
65996;SDS011;52765;52.258;21.052;2022-09-24T04:47:20;17.88;;;8.70;;
65996;SDS011;52765;52.258;21.052;2022-09-24T04:49:48;20.10;;;8.27;;
65996;SDS011;52765;52.258;21.052;2022-09-24T04:52:14;15.18;;;7.82;;
65996;SDS011;52765;52.258;21.052;2022-09-24T04:54:42;17.80;;;8.20;;
65996;SDS011;52765;52.258;21.052;2022-09-24T04:57:12;17.05;;;8.32;;
65996;SDS011;52765;52.258;21.052;2022-09-24T04:59:39;17.63;;;8.25;;
65996;SDS011;52765;52.258;21.052;2022-09-24T05:02:04;14.98;;;8.45;;
65996;SDS011;52765;52.258;21.052;2022-09-24T05:04:33;18.77;;;8.85;;
65996;SDS011;52765;52.258;21.052;2022-09-24T05:06:59;18.40;;;9.90;;
65996;SDS011;52765;52.258;21.052;2022-09-24T05:09:25;24.30;;;10.27;;
65996;SDS011;52765;52.258;21.052;2022-09-24T05:11:50;21.13;;;9.40;;
65996;SDS011;52765;52.258;21.052;2022-09-24T05:14:16;20.98;;;9.63;;
65996;SDS011;52765;52.258;21.052;2022-09-24T05:16:41;21.67;;;9.38;;
65996;SDS011;52765;52.258;21.052;2022-09-24T05:19:07;19.73;;;9.00;;
65996;SDS011;52765;52.258;21.052;2022-09-24T05:21:32;23.17;;;10.18;;
65996;SDS011;52765;52.258;21.052;2022-09-24T05:23:58;25.50;;;9.63;;
65996;SDS011;52765;52.258;21.052;2022-09-24T05:26:23;23.08;;;10.48;;
65996;SDS011;52765;52.258;21.052;2022-09-24T05:29:08;23.23;;;9.27;;
65996;SDS011;52765;52.258;21.052;2022-09-24T05:31:33;23.50;;;8.93;;
65996;SDS011;52765;52.258;21.052;2022-09-24T05:33:58;18.48;;;9.18;;
65996;SDS011;52765;52.258;21.052;2022-09-24T05:36:24;22.70;;;9.25;;
65996;SDS011;52765;52.258;21.052;2022-09-24T05:38:53;18.58;;;9.82;;
65996;SDS011;52765;52.258;21.052;2022-09-24T05:41:18;17.75;;;9.30;;
65996;SDS011;52765;52.258;21.052;2022-09-24T05:43:44;17.17;;;8.07;;
65996;SDS011;52765;52.258;21.052;2022-09-24T05:46:10;16.67;;;8.70;;
65996;SDS011;52765;52.258;21.052;2022-09-24T05:48:36;22.42;;;10.82;;
65996;SDS011;52765;52.258;21.052;2022-09-24T05:51:01;22.30;;;10.60;;
65996;SDS011;52765;52.258;21.052;2022-09-24T05:53:28;23.45;;;11.18;;
65996;SDS011;52765;52.258;21.052;2022-09-24T05:55:53;22.23;;;11.55;;
65996;SDS011;52765;52.258;21.052;2022-09-24T05:58:19;25.80;;;11.57;;
65996;SDS011;52765;52.258;21.052;2022-09-24T06:00:44;21.98;;;11.30;;
65996;SDS011;52765;52.258;21.052;2022-09-24T06:03:11;27.25;;;11.55;;
65996;SDS011;52765;52.258;21.052;2022-09-24T06:05:38;28.25;;;12.07;;
65996;SDS011;52765;52.258;21.052;2022-09-24T06:08:07;22.00;;;11.50;;
65996;SDS011;52765;52.258;21.052;2022-09-24T06:10:32;22.98;;;11.75;;
65996;SDS011;52765;52.258;21.052;2022-09-24T06:13:01;28.60;;;11.88;;
65996;SDS011;52765;52.258;21.052;2022-09-24T06:15:27;21.25;;;11.23;;
65996;SDS011;52765;52.258;21.052;2022-09-24T06:17:53;30.85;;;13.55;;
65996;SDS011;52765;52.258;21.052;2022-09-24T06:20:19;24.42;;;12.32;;
65996;SDS011;52765;52.258;21.052;2022-09-24T06:22:45;28.77;;;12.63;;
65996;SDS011;52765;52.258;21.052;2022-09-24T06:25:12;20.95;;;11.98;;
65996;SDS011;52765;52.258;21.052;2022-09-24T06:27:37;26.58;;;12.35;;
65996;SDS011;52765;52.258;21.052;2022-09-24T06:30:03;25.80;;;13.07;;
65996;SDS011;52765;52.258;21.052;2022-09-24T06:32:29;30.83;;;13.52;;
65996;SDS011;52765;52.258;21.052;2022-09-24T06:34:54;27.42;;;13.93;;
65996;SDS011;52765;52.258;21.052;2022-09-24T06:37:20;25.83;;;12.82;;
65996;SDS011;52765;52.258;21.052;2022-09-24T06:39:46;25.73;;;12.82;;
65996;SDS011;52765;52.258;21.052;2022-09-24T06:42:12;28.27;;;14.65;;
65996;SDS011;52765;52.258;21.052;2022-09-24T06:44:37;32.78;;;13.82;;
65996;SDS011;52765;52.258;21.052;2022-09-24T06:47:03;24.23;;;13.50;;
65996;SDS011;52765;52.258;21.052;2022-09-24T06:49:28;20.70;;;13.05;;
65996;SDS011;52765;52.258;21.052;2022-09-24T06:51:54;23.35;;;12.82;;
65996;SDS011;52765;52.258;21.052;2022-09-24T06:54:21;28.40;;;14.23;;
65996;SDS011;52765;52.258;21.052;2022-09-24T06:56:47;25.20;;;14.18;;
65996;SDS011;52765;52.258;21.052;2022-09-24T06:59:13;30.17;;;14.57;;
65996;SDS011;52765;52.258;21.052;2022-09-24T07:01:38;22.92;;;14.05;;
65996;SDS011;52765;52.258;21.052;2022-09-24T07:04:04;30.45;;;13.90;;
65996;SDS011;52765;52.258;21.052;2022-09-24T07:06:29;22.98;;;14.60;;
65996;SDS011;52765;52.258;21.052;2022-09-24T07:09:14;24.67;;;13.27;;
65996;SDS011;52765;52.258;21.052;2022-09-24T07:11:41;27.83;;;14.40;;
65996;SDS011;52765;52.258;21.052;2022-09-24T07:14:10;22.70;;;13.70;;
65996;SDS011;52765;52.258;21.052;2022-09-24T07:16:37;26.73;;;12.82;;
65996;SDS011;52765;52.258;21.052;2022-09-24T07:19:02;21.85;;;13.60;;
65996;SDS011;52765;52.258;21.052;2022-09-24T07:21:28;23.65;;;13.38;;
65996;SDS011;52765;52.258;21.052;2022-09-24T07:23:53;22.55;;;12.73;;
65996;SDS011;52765;52.258;21.052;2022-09-24T07:26:19;22.08;;;11.52;;
65996;SDS011;52765;52.258;21.052;2022-09-24T07:28:45;21.15;;;13.35;;
65996;SDS011;52765;52.258;21.052;2022-09-24T07:31:10;24.88;;;14.57;;
65996;SDS011;52765;52.258;21.052;2022-09-24T07:33:35;23.52;;;14.27;;
65996;SDS011;52765;52.258;21.052;2022-09-24T07:36:05;22.35;;;13.10;;
65996;SDS011;52765;52.258;21.052;2022-09-24T07:38:33;24.15;;;12.55;;
65996;SDS011;52765;52.258;21.052;2022-09-24T07:41:00;19.67;;;11.05;;
65996;SDS011;52765;52.258;21.052;2022-09-24T07:43:28;20.70;;;10.88;;
65996;SDS011;52765;52.258;21.052;2022-09-24T07:45:56;16.30;;;10.52;;
65996;SDS011;52765;52.258;21.052;2022-09-24T07:48:22;21.85;;;11.50;;
65996;SDS011;52765;52.258;21.052;2022-09-24T07:50:48;15.52;;;9.63;;
65996;SDS011;52765;52.258;21.052;2022-09-24T07:53:15;17.23;;;10.05;;
65996;SDS011;52765;52.258;21.052;2022-09-24T07:55:42;15.02;;;9.75;;
65996;SDS011;52765;52.258;21.052;2022-09-24T07:58:10;15.45;;;9.63;;
65996;SDS011;52765;52.258;21.052;2022-09-24T08:00:37;15.52;;;10.15;;
65996;SDS011;52765;52.258;21.052;2022-09-24T08:03:03;16.23;;;9.13;;
65996;SDS011;52765;52.258;21.052;2022-09-24T08:05:29;13.93;;;8.38;;
65996;SDS011;52765;52.258;21.052;2022-09-24T08:07:57;12.50;;;7.68;;
65996;SDS011;52765;52.258;21.052;2022-09-24T08:10:23;14.07;;;7.43;;
65996;SDS011;52765;52.258;21.052;2022-09-24T08:12:50;14.15;;;7.03;;
65996;SDS011;52765;52.258;21.052;2022-09-24T08:15:17;9.70;;;6.18;;
65996;SDS011;52765;52.258;21.052;2022-09-24T08:17:43;8.02;;;5.40;;
65996;SDS011;52765;52.258;21.052;2022-09-24T08:20:09;11.07;;;6.50;;
65996;SDS011;52765;52.258;21.052;2022-09-24T08:22:36;8.70;;;5.97;;
65996;SDS011;52765;52.258;21.052;2022-09-24T08:25:02;11.75;;;7.15;;
65996;SDS011;52765;52.258;21.052;2022-09-24T08:27:31;10.55;;;7.05;;
65996;SDS011;52765;52.258;21.052;2022-09-24T08:30:00;15.30;;;7.75;;
65996;SDS011;52765;52.258;21.052;2022-09-24T08:32:26;10.30;;;6.60;;
65996;SDS011;52765;52.258;21.052;2022-09-24T08:34:53;11.80;;;7.28;;
65996;SDS011;52765;52.258;21.052;2022-09-24T08:37:19;11.13;;;7.28;;
65996;SDS011;52765;52.258;21.052;2022-09-24T08:39:44;10.43;;;7.10;;
65996;SDS011;52765;52.258;21.052;2022-09-24T08:42:18;10.02;;;6.55;;
65996;SDS011;52765;52.258;21.052;2022-09-24T08:45:13;12.07;;;6.53;;
65996;SDS011;52765;52.258;21.052;2022-09-24T08:48:02;10.80;;;5.75;;
65996;SDS011;52765;52.258;21.052;2022-09-24T08:50:50;12.77;;;6.07;;
65996;SDS011;52765;52.258;21.052;2022-09-24T08:56:26;8.68;;;4.53;;
65996;SDS011;52765;52.258;21.052;2022-09-24T09:04:09;7.57;;;4.00;;
65996;SDS011;52765;52.258;21.052;2022-09-24T09:06:58;5.55;;;3.33;;
65996;SDS011;52765;52.258;21.052;2022-09-24T09:09:45;8.60;;;4.00;;
65996;SDS011;52765;52.258;21.052;2022-09-24T09:20:19;5.18;;;4.05;;
65996;SDS011;52765;52.258;21.052;2022-09-24T09:22:49;10.15;;;5.38;;
65996;SDS011;52765;52.258;21.052;2022-09-24T09:25:23;7.32;;;4.18;;
65996;SDS011;52765;52.258;21.052;2022-09-24T09:28:11;5.85;;;4.32;;
65996;SDS011;52765;52.258;21.052;2022-09-24T09:31:05;6.10;;;4.40;;
65996;SDS011;52765;52.258;21.052;2022-09-24T09:42:32;12.15;;;5.93;;
65996;SDS011;52765;52.258;21.052;2022-09-24T09:48:07;9.93;;;6.10;;
65996;SDS011;52765;52.258;21.052;2022-09-24T09:50:47;8.93;;;5.55;;
65996;SDS011;52765;52.258;21.052;2022-09-24T09:55:57;9.75;;;5.63;;
65996;SDS011;52765;52.258;21.052;2022-09-24T10:01:31;7.28;;;4.38;;
65996;SDS011;52765;52.258;21.052;2022-09-24T10:03:59;5.78;;;4.53;;
65996;SDS011;52765;52.258;21.052;2022-09-24T10:06:30;7.60;;;4.32;;
65996;SDS011;52765;52.258;21.052;2022-09-24T10:09:07;7.40;;;4.53;;
65996;SDS011;52765;52.258;21.052;2022-09-24T10:11:44;10.40;;;4.70;;
65996;SDS011;52765;52.258;21.052;2022-09-24T10:14:14;6.03;;;4.38;;
65996;SDS011;52765;52.258;21.052;2022-09-24T10:16:43;10.55;;;5.40;;
65996;SDS011;52765;52.258;21.052;2022-09-24T10:19:19;6.80;;;4.13;;
65996;SDS011;52765;52.258;21.052;2022-09-24T10:21:51;4.43;;;3.75;;
65996;SDS011;52765;52.258;21.052;2022-09-24T10:24:20;7.43;;;3.80;;
65996;SDS011;52765;52.258;21.052;2022-09-24T10:26:49;5.68;;;3.75;;
65996;SDS011;52765;52.258;21.052;2022-09-24T10:32:06;6.78;;;3.45;;
65996;SDS011;52765;52.258;21.052;2022-09-24T10:34:52;8.88;;;5.63;;
65996;SDS011;52765;52.258;21.052;2022-09-24T10:37:20;6.55;;;3.70;;
65996;SDS011;52765;52.258;21.052;2022-09-24T10:39:55;6.60;;;3.67;;
65996;SDS011;52765;52.258;21.052;2022-09-24T10:42:24;6.13;;;3.28;;
65996;SDS011;52765;52.258;21.052;2022-09-24T10:44:51;5.15;;;3.40;;
65996;SDS011;52765;52.258;21.052;2022-09-24T10:53:00;7.78;;;3.03;;
65996;SDS011;52765;52.258;21.052;2022-09-24T11:20:43;4.07;;;2.63;;
65996;SDS011;52765;52.258;21.052;2022-09-24T11:23:26;8.65;;;4.55;;
65996;SDS011;52765;52.258;21.052;2022-09-24T11:42:59;4.32;;;2.70;;
65996;SDS011;52765;52.258;21.052;2022-09-24T11:48:46;4.70;;;2.20;;
65996;SDS011;52765;52.258;21.052;2022-09-24T11:51:51;5.88;;;2.88;;
65996;SDS011;52765;52.258;21.052;2022-09-24T11:54:36;7.18;;;2.90;;
65996;SDS011;52765;52.258;21.052;2022-09-24T11:59:41;4.25;;;2.85;;
65996;SDS011;52765;52.258;21.052;2022-09-24T12:04:59;9.07;;;3.60;;
65996;SDS011;52765;52.258;21.052;2022-09-24T12:10:21;6.65;;;2.78;;
65996;SDS011;52765;52.258;21.052;2022-09-24T12:12:51;2.35;;;1.92;;
65996;SDS011;52765;52.258;21.052;2022-09-24T12:15:26;4.15;;;2.25;;
65996;SDS011;52765;52.258;21.052;2022-09-24T12:18:03;7.65;;;2.83;;
65996;SDS011;52765;52.258;21.052;2022-09-24T12:20:41;3.05;;;1.75;;
65996;SDS011;52765;52.258;21.052;2022-09-24T12:23:15;2.20;;;1.50;;
65996;SDS011;52765;52.258;21.052;2022-09-24T12:25:46;1.50;;;1.20;;
65996;SDS011;52765;52.258;21.052;2022-09-24T12:28:14;2.83;;;1.88;;
65996;SDS011;52765;52.258;21.052;2022-09-24T12:31:03;5.03;;;1.60;;
65996;SDS011;52765;52.258;21.052;2022-09-24T12:33:59;3.80;;;1.50;;
65996;SDS011;52765;52.258;21.052;2022-09-24T12:36:54;2.20;;;1.60;;
65996;SDS011;52765;52.258;21.052;2022-09-24T12:39:35;2.53;;;1.50;;
65996;SDS011;52765;52.258;21.052;2022-09-24T12:42:08;4.78;;;1.60;;
65996;SDS011;52765;52.258;21.052;2022-09-24T12:44:53;2.05;;;1.50;;
65996;SDS011;52765;52.258;21.052;2022-09-24T12:47:28;3.00;;;1.20;;
65996;SDS011;52765;52.258;21.052;2022-09-24T12:50:03;1.35;;;1.05;;
65996;SDS011;52765;52.258;21.052;2022-09-24T12:52:48;2.63;;;1.63;;
65996;SDS011;52765;52.258;21.052;2022-09-24T12:58:25;3.90;;;2.28;;
65996;SDS011;52765;52.258;21.052;2022-09-24T13:00:51;4.50;;;1.60;;
65996;SDS011;52765;52.258;21.052;2022-09-24T13:03:36;2.08;;;1.25;;
65996;SDS011;52765;52.258;21.052;2022-09-24T13:06:16;2.20;;;1.17;;
65996;SDS011;52765;52.258;21.052;2022-09-24T13:09:03;2.05;;;1.52;;
65996;SDS011;52765;52.258;21.052;2022-09-24T13:14:46;2.75;;;1.58;;
65996;SDS011;52765;52.258;21.052;2022-09-24T13:17:34;7.13;;;1.60;;
65996;SDS011;52765;52.258;21.052;2022-09-24T13:20:04;3.55;;;1.50;;
65996;SDS011;52765;52.258;21.052;2022-09-24T13:22:42;4.38;;;1.63;;
65996;SDS011;52765;52.258;21.052;2022-09-24T13:25:28;4.63;;;1.50;;
65996;SDS011;52765;52.258;21.052;2022-09-24T13:28:37;2.40;;;1.30;;
65996;SDS011;52765;52.258;21.052;2022-09-24T13:36:38;1.83;;;1.20;;
65996;SDS011;52765;52.258;21.052;2022-09-24T13:39:27;2.95;;;1.10;;
65996;SDS011;52765;52.258;21.052;2022-09-24T13:42:03;2.03;;;1.20;;
65996;SDS011;52765;52.258;21.052;2022-09-24T13:44:34;3.45;;;1.20;;
65996;SDS011;52765;52.258;21.052;2022-09-24T13:49:48;2.53;;;1.30;;
65996;SDS011;52765;52.258;21.052;2022-09-24T13:52:33;2.78;;;1.13;;
65996;SDS011;52765;52.258;21.052;2022-09-24T13:55:14;3.00;;;1.33;;
65996;SDS011;52765;52.258;21.052;2022-09-24T13:57:45;2.45;;;1.40;;
65996;SDS011;52765;52.258;21.052;2022-09-24T14:03:14;9.03;;;3.57;;
65996;SDS011;52765;52.258;21.052;2022-09-24T14:05:42;3.40;;;1.80;;
65996;SDS011;52765;52.258;21.052;2022-09-24T14:08:10;4.00;;;2.10;;
65996;SDS011;52765;52.258;21.052;2022-09-24T14:10:39;2.53;;;1.50;;
65996;SDS011;52765;52.258;21.052;2022-09-24T14:13:09;2.85;;;1.60;;
65996;SDS011;52765;52.258;21.052;2022-09-24T14:15:58;2.50;;;1.52;;
65996;SDS011;52765;52.258;21.052;2022-09-24T14:18:32;7.47;;;1.95;;
65996;SDS011;52765;52.258;21.052;2022-09-24T14:23:31;2.88;;;1.73;;
65996;SDS011;52765;52.258;21.052;2022-09-24T14:26:09;4.60;;;1.75;;
65996;SDS011;52765;52.258;21.052;2022-09-24T14:28:41;5.30;;;2.17;;
65996;SDS011;52765;52.258;21.052;2022-09-24T14:31:07;5.35;;;1.73;;
65996;SDS011;52765;52.258;21.052;2022-09-24T14:33:34;3.83;;;1.60;;
65996;SDS011;52765;52.258;21.052;2022-09-24T14:36:01;2.88;;;1.60;;
65996;SDS011;52765;52.258;21.052;2022-09-24T14:38:34;2.67;;;1.52;;
65996;SDS011;52765;52.258;21.052;2022-09-24T14:41:19;2.50;;;1.70;;
65996;SDS011;52765;52.258;21.052;2022-09-24T14:43:49;2.70;;;1.80;;
65996;SDS011;52765;52.258;21.052;2022-09-24T14:46:17;3.50;;;1.65;;
65996;SDS011;52765;52.258;21.052;2022-09-24T14:48:47;2.05;;;1.50;;
65996;SDS011;52765;52.258;21.052;2022-09-24T14:51:23;8.25;;;2.03;;
65996;SDS011;52765;52.258;21.052;2022-09-24T14:53:58;3.92;;;1.63;;
65996;SDS011;52765;52.258;21.052;2022-09-24T14:56:43;3.67;;;1.95;;
65996;SDS011;52765;52.258;21.052;2022-09-24T14:59:24;2.38;;;1.30;;
65996;SDS011;52765;52.258;21.052;2022-09-24T15:05:02;10.85;;;6.45;;
65996;SDS011;52765;52.258;21.052;2022-09-24T15:07:43;8.15;;;4.97;;
65996;SDS011;52765;52.258;21.052;2022-09-24T15:10:29;3.50;;;2.00;;
65996;SDS011;52765;52.258;21.052;2022-09-24T15:16:42;5.65;;;1.50;;
65996;SDS011;52765;52.258;21.052;2022-09-24T15:21:40;4.10;;;1.80;;
65996;SDS011;52765;52.258;21.052;2022-09-24T15:24:06;3.72;;;1.70;;
65996;SDS011;52765;52.258;21.052;2022-09-24T15:26:33;3.80;;;1.52;;
65996;SDS011;52765;52.258;21.052;2022-09-24T15:29:03;3.03;;;1.50;;
65996;SDS011;52765;52.258;21.052;2022-09-24T15:31:31;2.88;;;1.50;;
65996;SDS011;52765;52.258;21.052;2022-09-24T15:33:57;2.80;;;1.70;;
65996;SDS011;52765;52.258;21.052;2022-09-24T15:36:22;2.70;;;1.60;;
65996;SDS011;52765;52.258;21.052;2022-09-24T15:38:49;1.92;;;1.40;;
65996;SDS011;52765;52.258;21.052;2022-09-24T15:41:16;2.13;;;1.40;;
65996;SDS011;52765;52.258;21.052;2022-09-24T15:43:43;3.90;;;1.80;;
65996;SDS011;52765;52.258;21.052;2022-09-24T15:46:09;3.55;;;1.70;;
65996;SDS011;52765;52.258;21.052;2022-09-24T15:48:34;3.33;;;1.63;;
65996;SDS011;52765;52.258;21.052;2022-09-24T15:51:02;2.20;;;1.35;;
65996;SDS011;52765;52.258;21.052;2022-09-24T15:53:36;3.67;;;1.58;;
65996;SDS011;52765;52.258;21.052;2022-09-24T15:56:12;2.95;;;2.03;;
65996;SDS011;52765;52.258;21.052;2022-09-24T15:58:38;2.90;;;1.85;;
65996;SDS011;52765;52.258;21.052;2022-09-24T16:01:03;3.65;;;2.25;;
65996;SDS011;52765;52.258;21.052;2022-09-24T16:03:29;3.78;;;2.30;;
65996;SDS011;52765;52.258;21.052;2022-09-24T16:05:56;3.97;;;2.30;;
65996;SDS011;52765;52.258;21.052;2022-09-24T16:08:26;3.45;;;2.20;;
65996;SDS011;52765;52.258;21.052;2022-09-24T16:10:55;3.13;;;2.22;;
65996;SDS011;52765;52.258;21.052;2022-09-24T16:13:21;3.47;;;1.77;;
65996;SDS011;52765;52.258;21.052;2022-09-24T16:15:50;2.63;;;1.90;;
65996;SDS011;52765;52.258;21.052;2022-09-24T16:18:16;2.83;;;2.00;;
65996;SDS011;52765;52.258;21.052;2022-09-24T16:20:42;2.00;;;1.80;;
65996;SDS011;52765;52.258;21.052;2022-09-24T16:23:12;3.15;;;2.05;;
65996;SDS011;52765;52.258;21.052;2022-09-24T16:25:41;3.30;;;2.33;;
65996;SDS011;52765;52.258;21.052;2022-09-24T16:28:18;4.20;;;2.22;;
65996;SDS011;52765;52.258;21.052;2022-09-24T16:30:44;3.83;;;2.03;;
65996;SDS011;52765;52.258;21.052;2022-09-24T16:33:14;3.75;;;1.85;;
65996;SDS011;52765;52.258;21.052;2022-09-24T16:35:41;3.47;;;2.50;;
65996;SDS011;52765;52.258;21.052;2022-09-24T16:38:08;4.55;;;2.38;;
65996;SDS011;52765;52.258;21.052;2022-09-24T16:40:34;3.53;;;2.35;;
65996;SDS011;52765;52.258;21.052;2022-09-24T16:42:59;3.92;;;2.40;;
65996;SDS011;52765;52.258;21.052;2022-09-24T16:45:30;3.17;;;2.20;;
65996;SDS011;52765;52.258;21.052;2022-09-24T16:47:57;4.95;;;2.20;;
65996;SDS011;52765;52.258;21.052;2022-09-24T16:50:23;3.55;;;2.25;;
65996;SDS011;52765;52.258;21.052;2022-09-24T16:52:49;3.05;;;2.15;;
65996;SDS011;52765;52.258;21.052;2022-09-24T16:55:18;3.33;;;2.33;;
65996;SDS011;52765;52.258;21.052;2022-09-24T16:57:44;4.70;;;2.55;;
65996;SDS011;52765;52.258;21.052;2022-09-24T17:00:10;4.05;;;3.03;;
65996;SDS011;52765;52.258;21.052;2022-09-24T17:02:36;7.95;;;4.40;;
65996;SDS011;52765;52.258;21.052;2022-09-24T17:05:01;7.82;;;4.68;;
65996;SDS011;52765;52.258;21.052;2022-09-24T17:07:31;6.57;;;4.72;;